Time;durP1;ratioP1;P1;durP2;ratioP2;P2;SDS_P1;SDS_P2;PMS_P1;PMS_P2;Temp;Humidity;BMP_temperature;BMP_pressure;BME280_temperature;BME280_humidity;BME280_pressure;Samples;Min_cycle;Max_cycle;Signal;HPM_P1;HPM_P2
2023/12/02 00:00:04;;;;;;;59.40;30.50;;;;;;;-2.40;94.33;99699.59;105463;1256;82082;-57
2023/12/02 00:02:58;;;;;;;60.90;29.90;;;;;;;-2.40;94.53;99710.88;105488;1254;73688;-58
2023/12/02 00:05:27;;;;;;;65.00;30.60;;;;;;;-2.39;94.55;99713.45;105505;1254;69182;-58
2023/12/02 00:07:55;;;;;;;61.50;30.50;;;;;;;-2.38;94.51;99710.89;105487;1259;69188;-57
2023/12/02 00:10:24;;;;;;;62.30;29.80;;;;;;;-2.38;94.58;99714.83;105494;1254;73195;-57
2023/12/02 00:12:52;;;;;;;59.20;28.50;;;;;;;-2.38;94.31;99717.73;105492;1257;82067;-58
2023/12/02 00:15:20;;;;;;;59.10;29.10;;;;;;;-2.40;94.14;99713.62;105529;1257;71552;-58
2023/12/02 00:17:50;;;;;;;66.10;33.00;;;;;;;-2.41;94.28;99711.56;105478;1259;69111;-57
2023/12/02 00:20:19;;;;;;;67.70;33.70;;;;;;;-2.41;94.25;99701.63;105518;1254;69094;-58
2023/12/02 00:22:47;;;;;;;75.70;36.10;;;;;;;-2.43;94.18;99705.21;105549;1257;72483;-58
2023/12/02 00:25:15;;;;;;;72.50;35.70;;;;;;;-2.47;94.24;99704.86;105475;1257;81605;-58
2023/12/02 00:27:44;;;;;;;80.50;38.00;;;;;;;-2.47;94.25;99702.45;105516;1257;72970;-58
2023/12/02 00:30:12;;;;;;;80.00;39.70;;;;;;;-2.47;94.17;99699.21;105459;1260;69109;-58
2023/12/02 00:32:41;;;;;;;82.20;41.60;;;;;;;-2.47;94.28;99701.78;105552;1253;69198;-58
2023/12/02 00:35:09;;;;;;;90.10;41.90;;;;;;;-2.49;94.11;99695.45;105525;1258;72840;-58
2023/12/02 00:37:37;;;;;;;88.00;43.00;;;;;;;-2.49;94.22;99694.59;105499;1254;81242;-57
2023/12/02 00:40:06;;;;;;;92.80;43.30;;;;;;;-2.50;94.22;99703.64;105479;1254;71613;-58
2023/12/02 00:42:35;;;;;;;83.20;40.50;;;;;;;-2.52;94.07;99696.97;105522;1259;69163;-57
2023/12/02 00:45:04;;;;;;;93.10;44.90;;;;;;;-2.53;94.27;99690.46;105455;1259;69198;-58
2023/12/02 00:47:33;;;;;;;85.90;41.10;;;;;;;-2.52;94.16;99686.88;105532;1260;73224;-57
2023/12/02 00:50:01;;;;;;;85.80;42.60;;;;;;;-2.56;94.13;99690.27;105462;1257;81389;-58
2023/12/02 00:52:29;;;;;;;85.10;40.90;;;;;;;-2.59;93.94;99692.99;105448;1257;72384;-56
2023/12/02 00:54:57;;;;;;;93.20;43.30;;;;;;;-2.61;94.05;99690.94;105438;1258;69106;-57
2023/12/02 00:57:25;;;;;;;98.90;42.90;;;;;;;-2.64;94.01;99684.25;105451;1257;69218;-58
2023/12/02 00:59:54;;;;;;;95.30;43.70;;;;;;;-2.67;94.09;99685.09;105428;1259;74437;-57
2023/12/02 01:02:22;;;;;;;91.90;43.50;;;;;;;-2.67;94.00;99677.39;105427;1258;81803;-57
2023/12/02 01:04:51;;;;;;;83.50;41.80;;;;;;;-2.67;94.18;99670.38;105556;1259;72098;-58
2023/12/02 01:07:19;;;;;;;88.00;44.50;;;;;;;-2.66;94.27;99668.84;105459;1257;69199;-58
2023/12/02 01:09:47;;;;;;;85.80;42.30;;;;;;;-2.65;94.40;99676.73;105431;1258;69147;-58
2023/12/02 01:12:15;;;;;;;83.40;42.20;;;;;;;-2.63;94.43;99682.89;105463;1254;72788;-57
2023/12/02 01:14:44;;;;;;;85.90;42.40;;;;;;;-2.64;94.41;99688.01;105435;1259;81147;-57
2023/12/02 01:17:12;;;;;;;88.50;42.20;;;;;;;-2.65;94.32;99697.77;105420;1254;72670;-58
2023/12/02 01:19:40;;;;;;;85.80;42.10;;;;;;;-2.66;94.35;99704.59;105474;1254;69124;-58
2023/12/02 01:22:08;;;;;;;89.60;40.90;;;;;;;-2.69;94.20;99710.91;105468;1254;69182;-57
2023/12/02 01:24:37;;;;;;;83.50;41.40;;;;;;;-2.71;94.28;99705.60;105541;1257;71246;-58
2023/12/02 01:27:05;;;;;;;87.30;40.70;;;;;;;-2.72;94.39;99701.47;105436;1259;82044;-57
2023/12/02 01:29:33;;;;;;;86.40;40.80;;;;;;;-2.74;94.25;99697.72;105470;1259;72738;-58
2023/12/02 01:32:02;;;;;;;85.40;39.20;;;;;;;-2.76;94.21;99703.86;105496;1255;69285;-57
2023/12/02 01:34:30;;;;;;;83.20;39.70;;;;;;;-2.77;94.51;99710.70;105459;1260;69192;-57
2023/12/02 01:36:58;;;;;;;88.40;40.90;;;;;;;-2.73;94.86;99715.33;105486;1256;73519;-57
2023/12/02 01:39:27;;;;;;;87.50;41.00;;;;;;;-2.70;94.85;99711.41;105470;1256;81446;-57
2023/12/02 01:41:55;;;;;;;76.10;38.20;;;;;;;-2.71;94.67;99713.98;105491;1257;72114;-57
2023/12/02 01:44:23;;;;;;;74.20;36.90;;;;;;;-2.71;94.70;99716.19;105452;1260;69126;-57
2023/12/02 01:46:52;;;;;;;78.70;39.10;;;;;;;-2.71;94.86;99714.14;105437;1257;69199;-57
2023/12/02 01:49:21;;;;;;;77.50;38.30;;;;;;;-2.70;94.71;99716.38;105491;1254;72502;-57
2023/12/02 01:51:49;;;;;;;78.70;39.20;;;;;;;-2.72;94.71;99714.46;105416;1260;81604;-58
2023/12/02 01:54:19;;;;;;;77.00;39.10;;;;;;;-2.73;94.79;99712.77;105578;1259;71204;-57
2023/12/02 01:56:47;;;;;;;90.60;41.80;;;;;;;-2.72;94.82;99701.48;105404;1260;69108;-57
2023/12/02 01:59:30;;;;;;;81.90;38.70;;;;;;;-2.73;94.69;99698.23;105379;1259;69194;-57
2023/12/02 02:02:01;;;;;;;85.50;40.40;;;;;;;-2.78;94.56;99700.77;105457;1258;73137;-57
2023/12/02 02:04:29;;;;;;;88.10;41.60;;;;;;;-2.81;94.63;99698.69;105277;1260;81408;-56
2023/12/02 02:06:58;;;;;;;73.40;38.40;;;;;;;-2.82;94.70;99707.93;105387;1256;72136;-57
2023/12/02 02:09:26;;;;;;;79.00;38.60;;;;;;;-2.85;94.56;99713.05;105467;1260;69191;-57
2023/12/02 02:11:54;;;;;;;81.00;39.40;;;;;;;-2.87;94.71;99712.85;105372;1259;69129;-57
2023/12/02 02:14:22;;;;;;;80.20;39.60;;;;;;;-2.90;94.72;99717.79;105376;1259;72621;-57
2023/12/02 02:16:50;;;;;;;82.20;41.80;;;;;;;-2.90;94.86;99721.05;105368;1253;80383;-56
2023/12/02 02:19:18;;;;;;;85.80;39.50;;;;;;;-2.90;94.96;99717.44;105377;1259;71487;-57
2023/12/02 02:21:51;;;;;;;89.50;41.30;;;;;;;-2.89;95.01;99714.88;105329;1260;69162;-56
2023/12/02 02:24:19;;;;;;;83.00;41.40;;;;;;;-2.88;95.15;99707.55;105447;1261;69183;-56
2023/12/02 02:26:48;;;;;;;83.20;41.70;;;;;;;-2.88;95.20;99701.23;105407;1259;72844;-57
2023/12/02 02:29:16;;;;;;;83.00;41.70;;;;;;;-2.88;95.10;99699.84;105441;1267;82969;-57
2023/12/02 02:31:44;;;;;;;85.40;41.70;;;;;;;-2.88;95.14;99704.98;105352;1257;71827;-57
2023/12/02 02:34:12;;;;;;;85.30;42.60;;;;;;;-2.89;95.14;99711.64;105433;1258;69198;-57
2023/12/02 02:36:41;;;;;;;83.10;40.30;;;;;;;-2.90;94.97;99711.64;105416;1258;69182;-57
2023/12/02 02:39:10;;;;;;;85.10;41.50;;;;;;;-2.90;95.22;99710.77;105434;1255;73394;-57
2023/12/02 02:41:39;;;;;;;94.40;43.10;;;;;;;-2.91;95.17;99709.74;105463;1260;81830;-57
2023/12/02 02:44:07;;;;;;;77.80;39.80;;;;;;;-2.90;95.32;99706.52;105375;1258;71784;-58
2023/12/02 02:46:35;;;;;;;87.00;43.40;;;;;;;-2.88;95.36;99704.98;105388;1255;69442;-57
2023/12/02 02:49:03;;;;;;;81.60;41.40;;;;;;;-2.87;95.35;99708.74;105389;1260;69190;-57
2023/12/02 02:51:32;;;;;;;84.00;42.10;;;;;;;-2.88;95.47;99711.98;105435;1260;71286;-53
2023/12/02 02:54:01;;;;;;;89.70;41.50;;;;;;;-2.86;95.48;99710.64;105523;1257;81312;-54
2023/12/02 02:56:29;;;;;;;88.80;42.60;;;;;;;-2.85;95.43;99712.20;105395;1253;72182;-51
2023/12/02 02:58:58;;;;;;;83.70;43.50;;;;;;;-2.85;95.32;99710.13;105413;1263;69215;-51
2023/12/02 03:01:26;;;;;;;99.10;44.40;;;;;;;-2.85;95.42;99706.20;105434;1259;69151;-55
2023/12/02 03:03:54;;;;;;;92.90;46.30;;;;;;;-2.86;95.27;99706.71;105445;1254;72818;-53
2023/12/02 03:06:22;;;;;;;96.10;44.70;;;;;;;-2.87;95.44;99715.59;105438;1258;81516;-54
2023/12/02 03:08:51;;;;;;;100.10;48.30;;;;;;;-2.88;95.44;99718.31;105406;1260;71701;-53
2023/12/02 03:11:19;;;;;;;94.10;46.00;;;;;;;-2.88;95.43;99708.75;105487;1260;69132;-53
2023/12/02 03:13:47;;;;;;;95.50;46.50;;;;;;;-2.89;95.44;99696.41;105544;1260;69230;-55
2023/12/02 03:16:16;;;;;;;98.00;47.80;;;;;;;-2.91;95.43;99691.96;105495;1257;73975;-53
2023/12/02 03:18:44;;;;;;;96.50;47.20;;;;;;;-2.93;95.36;99686.33;105460;1256;80050;-51
2023/12/02 03:21:12;;;;;;;100.30;48.20;;;;;;;-2.94;95.32;99678.96;105464;1254;73585;-54
2023/12/02 03:23:40;;;;;;;102.10;49.80;;;;;;;-2.93;95.50;99672.99;105444;1257;69116;-51
2023/12/02 03:26:08;;;;;;;98.50;48.40;;;;;;;-2.93;95.47;99673.67;105474;1259;69630;-51
2023/12/02 03:28:37;;;;;;;99.00;48.00;;;;;;;-2.93;95.50;99678.80;105460;1257;72893;-54
2023/12/02 03:31:05;;;;;;;103.80;47.80;;;;;;;-2.93;95.54;99682.05;105502;1257;81457;-52
2023/12/02 03:33:33;;;;;;;104.60;48.80;;;;;;;-2.95;95.50;99683.73;105483;1259;71370;-56
2023/12/02 03:36:02;;;;;;;104.70;50.70;;;;;;;-2.96;95.37;99685.10;105448;1254;69189;-54
2023/12/02 03:38:30;;;;;;;97.60;48.70;;;;;;;-2.96;95.49;99680.66;105458;1257;69156;-52
2023/12/02 03:40:59;;;;;;;102.00;48.40;;;;;;;-2.94;95.75;99672.30;105450;1257;71403;-55
2023/12/02 03:43:28;;;;;;;99.70;48.80;;;;;;;-2.92;95.74;99661.70;105544;1257;82175;-55
2023/12/02 03:45:56;;;;;;;105.80;48.00;;;;;;;-2.93;95.62;99660.17;105447;1254;71796;-52
2023/12/02 03:48:24;;;;;;;99.10;48.40;;;;;;;-2.93;95.59;99666.66;105479;1260;69209;-55
2023/12/02 03:50:52;;;;;;;105.90;49.50;;;;;;;-2.94;95.60;99674.01;105496;1256;69177;-54
2023/12/02 03:53:20;;;;;;;101.70;48.00;;;;;;;-2.95;95.71;99679.46;105510;1257;73104;-55
2023/12/02 03:55:49;;;;;;;104.80;49.30;;;;;;;-2.97;95.50;99686.80;105497;1254;81543;-56
2023/12/02 03:58:17;;;;;;;98.70;49.40;;;;;;;-2.99;95.58;99689.36;105529;1254;71510;-55
2023/12/02 04:00:46;;;;;;;93.40;48.10;;;;;;;-2.99;95.65;99683.39;105449;1255;69089;-52
2023/12/02 04:03:14;;;;;;;98.30;47.80;;;;;;;-2.98;95.73;99678.44;105519;1257;69717;-53
2023/12/02 04:05:43;;;;;;;104.80;50.40;;;;;;;-2.98;95.87;99672.27;105559;1257;73838;-54
2023/12/02 04:08:11;;;;;;;99.00;48.90;;;;;;;-2.98;95.82;99675.02;105521;1257;80917;-55
2023/12/02 04:10:39;;;;;;;102.30;50.60;;;;;;;-2.99;95.80;99670.23;105518;1257;72387;-55
2023/12/02 04:13:08;;;;;;;98.10;48.30;;;;;;;-3.00;95.78;99670.72;105481;1257;69246;-54
2023/12/02 04:15:36;;;;;;;108.30;49.50;;;;;;;-3.01;95.89;99674.82;105538;1254;69148;-56
2023/12/02 04:18:04;;;;;;;99.90;48.80;;;;;;;-2.99;96.06;99676.55;105449;1257;72603;-54
2023/12/02 04:20:33;;;;;;;109.50;51.40;;;;;;;-2.96;96.06;99679.13;105523;1254;81834;-56
2023/12/02 04:23:01;;;;;;;102.20;51.00;;;;;;;-2.98;95.91;99685.94;105455;1261;72034;-55
2023/12/02 04:25:30;;;;;;;101.50;50.20;;;;;;;-2.99;96.01;99689.36;105508;1257;69308;-55
2023/12/02 04:27:58;;;;;;;105.70;49.60;;;;;;;-2.99;96.01;99690.55;105468;1257;69297;-55
2023/12/02 04:30:27;;;;;;;95.60;50.30;;;;;;;-2.97;96.09;99691.08;105463;1257;73712;-56
2023/12/02 04:32:56;;;;;;;106.00;50.70;;;;;;;-2.95;96.25;99696.21;105438;1258;82647;-56
2023/12/02 04:35:24;;;;;;;102.50;49.50;;;;;;;-2.94;96.22;99689.90;105495;1257;71619;-56
2023/12/02 04:37:52;;;;;;;106.20;51.00;;;;;;;-2.94;96.31;99679.14;105433;1254;69165;-55
2023/12/02 04:40:20;;;;;;;101.60;50.00;;;;;;;-2.93;96.19;99671.96;105461;1254;69205;-56
2023/12/02 04:42:48;;;;;;;107.70;49.90;;;;;;;-2.94;96.10;99667.00;105450;1258;72828;-55
2023/12/02 04:45:17;;;;;;;100.30;50.50;;;;;;;-2.94;96.20;99658.96;105487;1260;81635;-56
2023/12/02 04:47:45;;;;;;;114.00;52.60;;;;;;;-2.94;96.19;99650.41;105417;1253;71729;-57
2023/12/02 04:50:13;;;;;;;104.60;49.80;;;;;;;-2.96;95.98;99650.58;105460;1257;69102;-55
2023/12/02 04:52:41;;;;;;;99.90;50.20;;;;;;;-2.96;96.01;99646.13;105600;1257;69137;-56
2023/12/02 04:55:09;;;;;;;103.20;51.70;;;;;;;-2.97;96.09;99638.95;105355;1254;72807;-56
2023/12/02 04:57:38;;;;;;;98.60;48.60;;;;;;;-2.97;96.27;99639.28;105522;1255;79907;-55
2023/12/02 05:00:13;;;;;;;101.50;48.90;;;;;;;-2.96;96.24;99637.58;105442;1254;71689;-56
2023/12/02 05:02:43;;;;;;;98.90;48.50;;;;;;;-2.97;96.06;99640.65;105488;1257;69166;-56
2023/12/02 05:05:15;;;;;;;101.00;49.20;;;;;;;-2.97;96.21;99642.52;105545;1254;69199;-56
2023/12/02 05:07:43;;;;;;;102.70;49.90;;;;;;;-2.96;96.32;99645.45;105492;1257;71867;-56
2023/12/02 05:10:11;;;;;;;98.70;48.60;;;;;;;-2.96;96.31;99646.13;105478;1257;81576;-56
2023/12/02 05:12:40;;;;;;;102.10;48.00;;;;;;;-2.98;96.25;99643.90;105485;1258;70707;-56
2023/12/02 05:15:12;;;;;;;96.40;48.70;;;;;;;-2.98;96.32;99636.20;105482;1256;69128;-56
2023/12/02 05:17:40;;;;;;;100.10;47.40;;;;;;;-2.97;96.31;99632.61;105497;1257;69153;-56
2023/12/02 05:20:12;;;;;;;109.80;53.70;;;;;;;-2.97;96.22;99627.31;105527;1254;72953;-56
2023/12/02 05:22:41;;;;;;;109.70;52.00;;;;;;;-2.98;96.26;99619.11;105534;1254;80775;-54
2023/12/02 05:25:09;;;;;;;106.70;55.00;;;;;;;-2.99;96.35;99617.58;105439;1254;71997;-56
2023/12/02 05:27:38;;;;;;;106.50;53.20;;;;;;;-3.00;96.39;99623.55;105482;1254;69102;-56
2023/12/02 05:30:09;;;;;;;101.00;47.20;;;;;;;-3.00;96.39;99636.87;105453;1256;69186;-55
2023/12/02 05:32:37;;;;;;;96.30;46.30;;;;;;;-3.05;96.19;99643.34;105534;1254;72153;-56
2023/12/02 05:35:08;;;;;;;101.10;49.90;;;;;;;-3.04;96.45;99653.44;105450;1257;81701;-55
2023/12/02 05:37:37;;;;;;;102.90;49.30;;;;;;;-3.05;96.49;99657.52;105466;1258;72984;-55
2023/12/02 05:40:07;;;;;;;96.20;48.30;;;;;;;-3.05;96.50;99655.98;105632;1257;69086;-55
2023/12/02 05:42:36;;;;;;;93.90;47.60;;;;;;;-3.05;96.46;99656.33;105562;1257;69063;-57
2023/12/02 05:45:05;;;;;;;96.60;47.90;;;;;;;-3.05;96.58;99663.50;105576;1254;72904;-56
2023/12/02 05:47:33;;;;;;;104.40;47.80;;;;;;;-3.06;96.59;99669.48;105510;1257;82336;-55
2023/12/02 05:50:03;;;;;;;95.40;45.90;;;;;;;-3.04;96.60;99668.29;105532;1254;71656;-56
2023/12/02 05:52:31;;;;;;;100.00;46.40;;;;;;;-3.01;96.65;99667.13;105594;1254;69211;-56
2023/12/02 05:54:59;;;;;;;93.30;46.30;;;;;;;-3.01;96.69;99660.45;105463;1257;69202;-56
2023/12/02 05:57:27;;;;;;;99.20;46.70;;;;;;;-2.99;96.76;99660.31;105465;1254;74264;-56
2023/12/02 05:59:55;;;;;;;94.80;48.40;;;;;;;-3.00;96.72;99671.58;105439;1257;81581;-56
2023/12/02 06:02:24;;;;;;;94.90;44.80;;;;;;;-3.00;96.71;99675.84;105432;1254;71353;-56
2023/12/02 06:04:52;;;;;;;98.90;46.40;;;;;;;-3.00;96.71;99682.70;105495;1257;69093;-52
2023/12/02 06:07:20;;;;;;;97.20;45.90;;;;;;;-3.00;96.67;99686.11;105460;1254;69173;-54
2023/12/02 06:09:48;;;;;;;93.50;44.80;;;;;;;-3.01;96.77;99689.68;105450;1254;71616;-55
2023/12/02 06:12:16;;;;;;;84.80;42.30;;;;;;;-3.02;96.54;99694.27;105420;1254;80542;-55
2023/12/02 06:14:44;;;;;;;90.60;44.60;;;;;;;-3.01;96.83;99700.96;105426;1254;73488;-56
2023/12/02 06:17:12;;;;;;;93.10;44.30;;;;;;;-3.01;96.73;99700.12;105424;1254;69197;-55
2023/12/02 06:19:41;;;;;;;91.90;43.80;;;;;;;-3.02;96.74;99693.44;105468;1257;69098;-55
2023/12/02 06:22:09;;;;;;;98.60;45.30;;;;;;;-3.02;96.81;99694.98;105496;1254;71627;-56
2023/12/02 06:24:37;;;;;;;92.40;45.00;;;;;;;-3.04;96.77;99682.31;105424;1255;81303;-55
2023/12/02 06:27:05;;;;;;;94.10;47.20;;;;;;;-3.04;96.65;99670.35;105524;1257;72406;-56
2023/12/02 06:29:34;;;;;;;98.20;46.30;;;;;;;-3.06;96.64;99674.44;105453;1257;69227;-56
2023/12/02 06:32:02;;;;;;;90.60;45.10;;;;;;;-3.07;96.59;99678.70;105472;1254;69634;-54
2023/12/02 06:34:30;;;;;;;90.50;45.00;;;;;;;-3.08;96.74;99675.29;105503;1254;71920;-55
2023/12/02 06:36:58;;;;;;;86.30;45.00;;;;;;;-3.07;96.77;99682.12;105450;1254;81780;-56
2023/12/02 06:39:27;;;;;;;90.30;44.40;;;;;;;-3.07;96.81;99685.72;105506;1254;71348;-56
2023/12/02 06:41:56;;;;;;;88.20;43.90;;;;;;;-3.07;96.79;99687.94;105338;1259;69195;-56
2023/12/02 06:44:25;;;;;;;94.10;44.20;;;;;;;-3.06;96.99;99687.08;105513;1254;69211;-56
2023/12/02 06:46:54;;;;;;;94.00;46.80;;;;;;;-3.06;96.84;99685.38;105592;1254;72790;-56
2023/12/02 06:49:22;;;;;;;87.70;44.00;;;;;;;-3.09;96.71;99683.14;105466;1257;81504;-55
2023/12/02 06:51:50;;;;;;;92.50;45.30;;;;;;;-3.08;96.79;99688.78;105478;1257;71735;-56
2023/12/02 06:54:19;;;;;;;91.10;44.30;;;;;;;-3.09;96.88;99693.40;105452;1257;69305;-55
2023/12/02 06:56:47;;;;;;;89.80;45.30;;;;;;;-3.10;96.82;99692.54;105455;1257;69116;-56
2023/12/02 06:59:15;;;;;;;93.60;45.90;;;;;;;-3.10;96.85;99698.19;105513;1254;72556;-56
2023/12/02 07:01:44;;;;;;;88.90;45.40;;;;;;;-3.10;96.83;99702.27;105552;1254;81077;-56
2023/12/02 07:04:13;;;;;;;97.40;47.40;;;;;;;-3.12;96.73;99708.59;105469;1254;72187;-55
2023/12/02 07:06:41;;;;;;;101.70;50.30;;;;;;;-3.11;96.81;99709.95;105480;1257;69125;-55
2023/12/02 07:09:11;;;;;;;104.90;50.10;;;;;;;-3.11;96.88;99711.99;105495;1257;69196;-56
2023/12/02 07:11:39;;;;;;;102.90;48.90;;;;;;;-3.11;96.99;99712.34;105499;1257;73306;-56
2023/12/02 07:14:08;;;;;;;106.40;53.70;;;;;;;-3.10;96.93;99720.39;105595;1257;81328;-55
2023/12/02 07:16:36;;;;;;;110.90;56.70;;;;;;;-3.09;96.90;99724.67;105527;1257;70430;-57
2023/12/02 07:19:04;;;;;;;102.90;53.10;;;;;;;-3.10;96.81;99721.94;105510;1254;69096;-57
2023/12/02 07:21:33;;;;;;;112.10;58.40;;;;;;;-3.10;96.92;99718.67;105520;1257;69230;-55
2023/12/02 07:24:01;;;;;;;104.80;53.00;;;;;;;-3.08;96.99;99723.65;105540;1256;71463;-56
2023/12/02 07:26:30;;;;;;;114.30;57.10;;;;;;;-3.08;96.96;99725.37;105493;1257;81867;-55
2023/12/02 07:28:58;;;;;;;120.70;60.30;;;;;;;-3.08;96.93;99726.89;105464;1254;70241;-56
2023/12/02 07:31:27;;;;;;;118.90;60.60;;;;;;;-3.07;96.99;99732.55;105442;1253;69161;-56
2023/12/02 07:33:55;;;;;;;124.40;63.90;;;;;;;-3.06;97.07;99734.95;105663;1254;69249;-56
2023/12/02 07:36:24;;;;;;;117.40;61.00;;;;;;;-3.02;97.10;99734.11;105533;1254;72795;-53
2023/12/02 07:38:52;;;;;;;125.40;62.20;;;;;;;-3.01;97.09;99737.55;105695;1254;81778;-51
2023/12/02 07:41:20;;;;;;;122.90;61.30;;;;;;;-3.01;97.15;99744.04;105500;1257;73190;-52
2023/12/02 07:43:48;;;;;;;134.20;64.90;;;;;;;-2.99;96.94;99744.73;105519;1257;69211;-53
2023/12/02 07:46:16;;;;;;;130.00;66.00;;;;;;;-3.01;96.88;99746.27;105512;1254;69150;-56
2023/12/02 07:48:45;;;;;;;115.00;60.80;;;;;;;-3.01;96.84;99741.98;105538;1254;71486;-56
2023/12/02 07:51:13;;;;;;;115.80;58.80;;;;;;;-3.02;96.82;99740.61;105501;1257;81309;-58
2023/12/02 07:53:41;;;;;;;115.90;58.60;;;;;;;-3.02;96.79;99746.77;105498;1254;70070;-58
2023/12/02 07:56:09;;;;;;;118.40;59.20;;;;;;;-3.02;96.74;99749.33;105493;1257;69187;-60
2023/12/02 07:58:38;;;;;;;111.30;59.70;;;;;;;-3.04;96.60;99754.45;105711;1257;68956;-58
2023/12/02 08:01:06;;;;;;;114.40;60.30;;;;;;;-3.04;96.73;99745.05;105535;1253;74333;-56
2023/12/02 08:03:34;;;;;;;100.30;53.40;;;;;;;-3.05;96.69;99741.60;105658;1257;81516;-55
2023/12/02 08:06:03;;;;;;;110.40;53.20;;;;;;;-3.05;96.67;99741.45;105501;1254;71837;-56
2023/12/02 08:08:31;;;;;;;116.90;56.70;;;;;;;-3.03;96.71;99748.46;105539;1257;69121;-55
2023/12/02 08:10:59;;;;;;;105.10;54.50;;;;;;;-3.03;96.68;99756.84;105552;1257;69208;-54
2023/12/02 08:13:27;;;;;;;109.90;55.20;;;;;;;-3.03;96.79;99752.56;105531;1254;73195;-58
2023/12/02 08:15:55;;;;;;;103.20;54.60;;;;;;;-3.03;96.72;99753.60;105509;1257;81856;-57
2023/12/02 08:18:24;;;;;;;99.50;52.40;;;;;;;-3.02;96.91;99760.79;105665;1253;71561;-56
2023/12/02 08:20:52;;;;;;;98.80;49.20;;;;;;;-3.01;96.88;99764.55;105491;1253;69058;-55
2023/12/02 08:23:20;;;;;;;101.50;51.90;;;;;;;-3.00;96.81;99765.23;105534;1257;69115;-57
2023/12/02 08:25:48;;;;;;;97.40;48.80;;;;;;;-2.99;96.77;99768.67;105562;1254;72800;-56
2023/12/02 08:28:16;;;;;;;100.80;48.60;;;;;;;-3.00;96.85;99765.42;105547;1257;81484;-58
2023/12/02 08:30:44;;;;;;;97.50;49.70;;;;;;;-2.98;97.01;99765.77;105646;1257;72015;-57
2023/12/02 08:33:12;;;;;;;109.20;53.80;;;;;;;-2.94;97.16;99768.02;105528;1254;70015;-56
2023/12/02 08:35:40;;;;;;;97.60;49.10;;;;;;;-2.91;97.04;99765.65;105591;1256;69104;-56
2023/12/02 08:38:08;;;;;;;92.40;47.90;;;;;;;-2.92;97.05;99763.94;105524;1257;71557;-57
2023/12/02 08:40:37;;;;;;;94.60;49.80;;;;;;;-2.90;96.89;99764.63;105586;1256;81498;-56
2023/12/02 08:43:05;;;;;;;93.00;49.90;;;;;;;-2.89;96.84;99768.91;105474;1257;71883;-55
2023/12/02 08:45:33;;;;;;;94.20;47.10;;;;;;;-2.87;96.89;99765.17;105593;1254;69087;-56
2023/12/02 08:48:01;;;;;;;94.10;47.90;;;;;;;-2.86;96.77;99763.98;105683;1257;69269;-55
2023/12/02 08:50:30;;;;;;;95.50;49.60;;;;;;;-2.83;96.86;99766.05;105755;1257;72632;-56
2023/12/02 08:52:58;;;;;;;99.70;49.00;;;;;;;-2.80;96.99;99766.06;105333;1259;81429;-57
2023/12/02 08:55:26;;;;;;;93.90;48.30;;;;;;;-2.80;96.85;99758.54;105354;1256;73943;-57
2023/12/02 08:57:55;;;;;;;96.00;48.50;;;;;;;-2.80;96.68;99755.98;105449;1259;69138;-57
2023/12/02 09:00:23;;;;;;;94.00;47.60;;;;;;;-2.79;96.83;99761.14;105382;1256;69189;-56
2023/12/02 09:02:51;;;;;;;98.60;49.00;;;;;;;-2.76;96.98;99770.20;105309;1260;72751;-56
2023/12/02 09:05:20;;;;;;;95.90;48.20;;;;;;;-2.72;96.98;99773.98;105756;1257;81186;-57
2023/12/02 09:07:48;;;;;;;91.20;46.40;;;;;;;-2.71;96.94;99777.59;105386;1257;72125;-57
2023/12/02 09:10:16;;;;;;;98.00;48.40;;;;;;;-2.71;96.78;99777.94;105312;1257;69049;-56
2023/12/02 09:12:45;;;;;;;92.70;47.20;;;;;;;-2.70;96.70;99777.08;105399;1260;69599;-57
2023/12/02 09:15:15;;;;;;;90.50;49.20;;;;;;;-2.67;96.91;99772.13;105362;1256;71690;-57
2023/12/02 09:18:07;;;;;;;99.60;48.00;;;;;;;-2.62;97.08;99771.83;105379;1257;82404;-57
2023/12/02 09:20:48;;;;;;;94.50;47.00;;;;;;;-2.57;96.93;99778.70;105335;1257;70066;-56
2023/12/02 09:23:17;;;;;;;91.40;45.60;;;;;;;-2.56;97.03;99779.39;105469;1257;69184;-57
2023/12/02 09:25:47;;;;;;;99.80;49.10;;;;;;;-2.51;97.21;99780.27;105434;1256;69187;-57
2023/12/02 09:28:17;;;;;;;91.90;45.40;;;;;;;-2.45;97.28;99778.44;105438;1256;72946;-57
2023/12/02 09:30:53;;;;;;;94.60;46.30;;;;;;;-2.40;97.37;99776.23;105485;1256;82844;-55
2023/12/02 09:33:37;;;;;;;96.80;45.00;;;;;;;-2.35;97.24;99765.65;105399;1257;70368;-56
2023/12/02 09:36:07;;;;;;;86.30;42.30;;;;;;;-2.38;96.77;99759.30;105450;1257;69135;-54
2023/12/02 09:38:35;;;;;;;90.50;42.60;;;;;;;-2.40;96.82;99742.36;105493;1256;69124;-54
2023/12/02 09:41:08;;;;;;;86.20;41.40;;;;;;;-2.37;96.99;99725.60;105342;1256;72893;-55
2023/12/02 09:43:52;;;;;;;86.60;39.30;;;;;;;-2.36;96.80;99736.21;105402;1259;81409;-56
2023/12/02 09:46:31;;;;;;;74.80;36.90;;;;;;;-2.35;96.76;99753.85;105471;1257;72128;-54
2023/12/02 09:49:41;;;;;;;82.20;37.80;;;;;;;-2.34;96.80;99762.23;105365;1258;69126;-57
2023/12/02 09:52:24;;;;;;;77.00;35.40;;;;;;;-2.32;96.79;99777.65;105433;1257;69131;-57
2023/12/02 09:55:15;;;;;;;79.80;35.80;;;;;;;-2.32;96.65;99782.10;105531;1257;73245;-58
2023/12/02 09:57:50;;;;;;;70.80;34.60;;;;;;;-2.30;96.70;99767.89;105472;1257;81594;-55
2023/12/02 10:00:27;;;;;;;77.40;35.40;;;;;;;-2.23;97.13;99774.10;105582;1254;73859;-54
2023/12/02 10:03:13;;;;;;;70.00;35.10;;;;;;;-2.16;97.15;99772.23;105426;1253;69177;-59
2023/12/02 10:06:15;;;;;;;74.30;35.80;;;;;;;-2.09;97.26;99767.48;105489;1254;69163;-58
2023/12/02 10:08:57;;;;;;;73.00;34.60;;;;;;;-2.02;97.35;99761.67;105534;1254;73384;-58
2023/12/02 10:11:31;;;;;;;77.80;38.60;;;;;;;-1.98;97.22;99755.02;105594;1254;83497;-57
2023/12/02 10:14:02;;;;;;;72.50;34.80;;;;;;;-1.98;97.04;99753.30;105503;1254;72056;-58
2023/12/02 10:16:31;;;;;;;73.30;36.50;;;;;;;-1.97;96.99;99750.92;105596;1253;69173;-58
2023/12/02 10:19:00;;;;;;;79.80;37.40;;;;;;;-1.95;96.97;99750.76;105491;1259;69167;-58
2023/12/02 10:21:30;;;;;;;80.80;38.50;;;;;;;-1.94;97.03;99747.50;105523;1253;73172;-59
2023/12/02 10:24:05;;;;;;;80.70;38.70;;;;;;;-1.87;97.24;99747.69;109227;1253;82027;-59
2023/12/02 10:26:49;;;;;;;74.90;36.70;;;;;;;-1.85;97.17;99750.11;109130;1254;71721;-57
2023/12/02 10:29:24;;;;;;;73.10;34.70;;;;;;;-1.85;96.94;99743.09;107171;1253;69205;-57
2023/12/02 10:31:59;;;;;;;70.40;35.80;;;;;;;-1.85;96.81;99735.20;105381;1257;69068;-58
2023/12/02 10:34:30;;;;;;;74.50;34.80;;;;;;;-1.84;96.75;99729.89;105753;1253;72931;-56
2023/12/02 10:37:00;;;;;;;69.90;32.00;;;;;;;-1.84;96.72;99735.54;105393;1253;83316;-57
2023/12/02 10:39:35;;;;;;;71.60;34.70;;;;;;;-1.84;96.77;99734.85;105581;1257;70123;-57
2023/12/02 10:42:04;;;;;;;66.80;33.70;;;;;;;-1.82;96.92;99731.96;105526;1254;69167;-57
2023/12/02 10:44:33;;;;;;;71.70;35.20;;;;;;;-1.82;96.87;99727.67;105546;1254;69180;-57
2023/12/02 10:47:03;;;;;;;64.90;31.50;;;;;;;-1.85;96.82;99725.09;105553;1254;73159;-57
2023/12/02 10:49:31;;;;;;;68.00;30.90;;;;;;;-1.86;96.91;99729.04;105546;1257;81875;-57
2023/12/02 10:52:00;;;;;;;60.90;30.90;;;;;;;-1.84;96.91;99725.95;105441;1254;71701;-57
2023/12/02 10:54:35;;;;;;;60.20;30.50;;;;;;;-1.82;97.03;99728.54;104918;1262;176846;-57
2023/12/02 10:57:08;;;;;;;65.20;33.50;;;;;;;-1.79;97.06;99738.64;105090;1260;69195;-57
2023/12/02 10:59:44;;;;;;;59.60;30.40;;;;;;;-1.77;97.06;99750.98;105095;1262;72617;-57
2023/12/02 11:02:31;;;;;;;55.10;28.00;;;;;;;-1.70;97.08;99753.55;105096;1260;80476;-57
2023/12/02 11:05:24;;;;;;;59.00;29.40;;;;;;;-1.66;97.27;99752.71;104973;1260;74000;-57
2023/12/02 11:07:54;;;;;;;50.20;27.30;;;;;;;-1.61;97.11;99756.16;105019;1258;69189;-57
2023/12/02 11:10:42;;;;;;;48.90;25.80;;;;;;;-1.58;97.00;99766.42;105113;1262;69262;-57
2023/12/02 11:13:12;;;;;;;47.10;24.20;;;;;;;-1.54;97.06;99771.92;105309;1258;73064;-57
2023/12/02 11:16:14;;;;;;;48.70;25.00;;;;;;;-1.50;97.15;99776.55;105378;1258;81196;-57
2023/12/02 11:18:56;;;;;;;53.10;28.60;;;;;;;-1.47;96.86;99764.91;105540;1257;72080;-53